Latest Weather Observations for Creal Reef

IDQ60801

Issued at 7:05 pm EST Monday 24 November 2014 (issued every 30 minutes, with the page automatically refreshed every 10 minutes)

About weather observations | Map of weather stations | Latest weather observations for QLD | Other Formats
Station Details ID: 200736 Name: CREAL REEF Lat: -20.53 Lon: 150.38 Height: 1.7 m
Data from the previous 72 hours. | See also: Recent months for locations in Queensland
Date/Time
EST
Temp
°C
App
Temp
°C
Dew
Point
Rel
Hum
%
Delta-T
°C
Wind Press
QNH
hPa
Press
MSL
hPa
Rain
since 9 am
mm
Dir
 
Spd
km/h
Gust
km/h
Spd
kts
Gust
kts
24/07:00pm 26.0 - - - - E 26 30 14 16 1012.9 - -
24/06:30pm 25.9 - - - - E 26 30 14 16 1012.6 - -
24/06:20pm 26.0 - - - - E 26 - 14 - - 1012.5 -
24/06:00pm 26.1 - - - - E 28 32 15 17 1012.5 - -
24/05:30pm 26.2 - - - - E 28 32 15 17 1012.3 - -
24/05:20pm 26.2 - - - - E 28 - 15 - - 1012.1 -
24/05:00pm 26.2 - - - - E 28 32 15 17 1012.1 - -
24/04:30pm 25.8 - - - - E 22 26 12 14 1012.0 - -
24/04:20pm 25.6 - - - - E 30 - 16 - - 1012.0 -
24/04:00pm 26.0 - - - - E 22 26 12 14 1012.1 - -
24/03:30pm 25.3 - - - - E 30 37 16 20 1012.3 - -
24/03:20pm 26.3 - - - - E 22 - 12 - - 1012.3 -
24/03:00pm 25.9 - - - - E 24 28 13 15 1012.7 - -
24/02:30pm 26.5 - - - - E 22 24 12 13 1013.0 - -
24/02:20pm 26.4 - - - - E 17 - 9 - - 1013.0 -
24/02:00pm 26.3 - - - - E 17 20 9 11 1013.3 - -
24/01:30pm 26.5 - - - - E 22 28 12 15 1013.5 - -
24/01:20pm 26.6 - - - - E 22 - 12 - - 1013.5 -
24/01:00pm 26.4 - - - - E 20 24 11 13 1013.8 - -
24/12:30pm 26.4 - - - - E 24 28 13 15 1014.0 - -
24/12:20pm 26.3 - - - - E 24 - 13 - - 1014.1 -
24/12:00pm 26.4 - - - - E 22 26 12 14 1014.4 - -
24/11:30am 26.3 - - - - E 22 26 12 14 1014.5 - -
24/11:20am 26.0 - - - - E 19 - 10 - - 1014.5 -
24/11:00am 24.7 - - - - NNE 17 24 9 13 1014.9 - -
24/10:30am 25.4 - - - - ESE 19 20 10 11 1015.1 - -
24/10:20am 25.1 - - - - ESE 19 - 10 - - 1015.1 -
24/10:00am 26.2 - - - - E 19 20 10 11 1015.2 - -
24/09:30am 26.3 - - - - ENE 19 20 10 11 1015.2 - -
24/09:20am 26.5 - - - - ENE 19 - 10 - - 1015.2 -
24/09:00am 26.4 - - - - E 20 24 11 13 1015.3 - -
24/08:30am 26.2 - - - - E 13 19 7 10 1015.4 - -
24/08:20am 26.3 - - - - E 15 - 8 - - 1015.3 -
24/08:00am 25.8 - - - - ESE 15 17 8 9 1015.3 - -
24/07:30am 25.7 - - - - E 15 17 8 9 1015.1 - -
24/07:20am 25.6 - - - - E 13 - 7 - - 1015.0 -
24/07:00am 25.6 - - - - E 15 17 8 9 1015.0 - -
24/06:30am 25.4 - - - - E 15 17 8 9 1014.7 - -
24/06:20am 25.3 - - - - ENE 15 - 8 - - 1014.6 -
24/06:00am 25.1 - - - - ENE 13 17 7 9 1014.5 - -
24/05:30am 24.9 - - - - NE 13 17 7 9 1014.2 - -
24/05:20am 24.8 - - - - NNE 15 - 8 - - 1014.0 -
24/05:00am 24.7 - - - - NNE 19 20 10 11 1013.7 - -
24/04:30am 24.6 - - - - NNE 22 24 12 13 1013.6 - -
24/04:20am 24.5 - - - - NNE 22 - 12 - - 1013.6 -
24/04:00am 24.7 - - - - NNE 24 30 13 16 1013.7 - -
24/03:30am 24.7 - - - - NNE 26 28 14 15 1013.6 - -
24/03:20am 24.7 - - - - NNE 24 - 13 - - 1013.5 -
24/03:00am 24.5 - - - - NNE 33 39 18 21 1013.5 - -
24/02:30am 24.4 - - - - NE 35 39 19 21 1013.7 - -
24/02:20am 25.1 - - - - NE 30 41 16 22 1013.7 1013.6 -
24/02:00am 25.4 - - - - NE 20 24 11 13 1013.9 - -
24/01:30am 25.8 - - - - E 17 19 9 10 1014.1 - -
24/01:20am 25.7 - - - - E 17 - 9 - - 1014.0 -
24/01:00am 25.8 - - - - E 17 19 9 10 1014.3 - -
24/12:30am 25.6 - - - - E 15 19 8 10 1014.7 - -
24/12:20am 25.8 - - - - E 15 - 8 - - 1014.6 -
24/12:00am 25.6 - - - - E 19 20 10 11 1015.0 - -
 
Date/Time
EST
Temp
°C
App
Temp
°C
Dew
Point
Rel
Hum
%
Delta-T
°C
Wind Press
QNH
hPa
Press
MSL
hPa
Rain
since 9 am
mm
Dir
 
Spd
km/h
Gust
km/h
Spd
kts
Gust
kts
23/11:30pm 25.7 - - - - E 19 20 10 11 1015.2 - -
23/11:20pm 25.7 - - - - E 20 - 11 - - 1015.2 -
23/11:00pm 25.6 - - - - E 20 24 11 13 1015.4 - -
23/10:30pm 25.6 - - - - E 24 26 13 14 1015.4 - -
23/10:20pm 25.6 - - - - E 24 - 13 - - 1015.1 -
23/10:00pm 25.7 - - - - E 24 28 13 15 1015.2 - -
23/09:30pm 25.7 - - - - E 24 28 13 15 1015.2 - -
23/09:20pm 25.7 - - - - E 24 - 13 - - 1014.9 -
23/09:00pm 25.7 - - - - E 26 30 14 16 1014.8 - -
23/08:30pm 25.8 - - - - E 26 30 14 16 1014.6 - -
23/08:20pm 25.7 - - - - E 26 - 14 - - 1014.5 -
23/08:00pm 25.7 - - - - E 24 28 13 15 1014.5 - -
23/07:30pm 25.8 - - - - E 26 30 14 16 1014.3 - -
23/07:20pm 25.6 - - - - ESE 26 - 14 - - 1014.1 -
23/07:00pm 25.7 - - - - ESE 26 30 14 16 1014.1 - -
23/06:30pm 25.7 - - - - ESE 26 30 14 16 1014.0 - -
23/06:20pm 25.7 - - - - ESE 28 - 15 - - 1013.9 -
23/06:00pm 25.7 - - - - ESE 26 32 14 17 1013.7 - -
23/05:30pm 25.9 - - - - ESE 26 30 14 16 1013.7 - -
23/05:20pm 25.9 - - - - ESE 26 - 14 - - 1013.6 -
23/05:00pm 25.8 - - - - ESE 24 28 13 15 1013.6 - -
23/04:30pm 25.9 - - - - ESE 22 26 12 14 1013.7 - -
23/04:20pm 25.9 - - - - ESE 24 - 13 - - 1013.5 -
23/04:00pm 25.9 - - - - ESE 24 28 13 15 1013.6 - -
23/03:30pm 25.8 - - - - ESE 24 28 13 15 1013.7 - -
23/03:20pm 26.0 - - - - SE 24 - 13 - - 1013.6 -
23/03:00pm 25.9 - - - - SE 24 26 13 14 1013.9 - -
23/02:30pm 26.0 - - - - SE 22 24 12 13 1014.2 - -
23/02:20pm 25.9 - - - - SE 22 - 12 - - 1014.1 -
23/02:00pm 26.0 - - - - SE 22 24 12 13 1014.3 - -
23/01:30pm 26.1 - - - - SE 22 24 12 13 1014.6 - -
23/01:20pm 26.1 - - - - SE 20 - 11 - - 1014.6 -
23/01:00pm 26.1 - - - - ESE 22 24 12 13 1014.9 - -
23/12:30pm 26.1 - - - - ESE 22 24 12 13 1015.2 - -
23/12:20pm 26.0 - - - - ESE 20 - 11 - - 1015.2 -
23/12:00pm 26.1 - - - - ESE 20 22 11 12 1015.4 - -
23/11:30am 26.1 - - - - ESE 19 20 10 11 1015.6 - -
23/11:20am 26.1 - - - - ESE 19 - 10 - - 1015.7 -
23/11:00am 26.1 - - - - ESE 19 20 10 11 1016.1 - -
23/10:30am 26.1 - - - - E 19 20 10 11 1016.1 - -
23/10:20am 26.2 - - - - ESE 17 - 9 - - 1016.1 -
23/10:00am 26.2 - - - - E 17 19 9 10 1016.3 - -
23/09:30am 26.3 - - - - E 19 20 10 11 1016.4 - -
23/09:20am 26.3 - - - - E 19 - 10 - - 1016.3 -
23/09:00am 26.4 - - - - E 19 20 10 11 1016.3 - -
23/08:30am 26.2 - - - - E 17 19 9 10 1016.0 - -
23/08:20am 26.2 - - - - E 19 - 10 - - 1015.8 -
23/08:00am 26.3 - - - - E 19 20 10 11 1015.6 - -
23/07:30am 26.1 - - - - E 19 20 10 11 1015.4 - -
23/07:20am 26.2 - - - - E 19 - 10 - - 1015.3 -
23/07:00am 26.2 - - - - E 19 20 10 11 1015.3 - -
23/06:30am 26.1 - - - - E 19 20 10 11 1015.0 - -
23/06:20am 26.1 - - - - E 19 - 10 - - 1014.7 -
23/06:00am 26.1 - - - - E 19 20 10 11 1014.6 - -
23/05:30am 25.7 - - - - E 19 20 10 11 1014.4 - -
23/05:20am 25.7 - - - - E 19 - 10 - - 1014.2 -
23/05:00am 25.6 - - - - E 19 22 10 12 1014.0 - -
23/04:30am 25.6 - - - - E 19 22 10 12 1013.8 - -
23/04:20am 25.6 - - - - E 19 - 10 - - 1013.6 -
23/04:00am 25.7 - - - - E 19 22 10 12 1013.5 - -
23/03:30am 25.7 - - - - E 19 20 10 11 1013.4 - -
23/03:20am 25.7 - - - - E 20 - 11 - - 1013.4 -
23/03:00am 25.7 - - - - ENE 19 22 10 12 1013.5 - -
23/02:30am 25.7 - - - - ENE 19 20 10 11 1013.3 - -
23/02:20am 25.6 - - - - E 19 - 10 - - 1013.2 -
23/02:00am 25.7 - - - - E 17 19 9 10 1013.3 - -
23/01:30am 25.7 - - - - ENE 19 22 10 12 1013.5 - -
23/01:20am 25.8 - - - - ENE 20 - 11 - - 1013.4 -
23/01:00am 25.8 - - - - ENE 22 26 12 14 1013.7 - -
23/12:30am 25.9 - - - - ENE 22 26 12 14 1014.2 - -
23/12:20am 25.9 - - - - ENE 22 - 12 - - 1014.2 -
23/12:00am 26.0 - - - - ENE 26 30 14 16 1014.6 - -
 
Date/Time
EST
Temp
°C
App
Temp
°C
Dew
Point
Rel
Hum
%
Delta-T
°C
Wind Press
QNH
hPa
Press
MSL
hPa
Rain
since 9 am
mm
Dir
 
Spd
km/h
Gust
km/h
Spd
kts
Gust
kts
22/11:30pm 26.1 - - - - ENE 26 28 14 15 1014.8 - -
22/11:20pm 26.1 - - - - ENE 26 - 14 - - 1014.8 -
22/11:00pm 26.1 - - - - ENE 28 32 15 17 1015.1 - -
22/10:30pm 26.0 - - - - ENE 19 20 10 11 1015.1 - -
22/10:20pm 26.0 - - - - E 20 - 11 - - 1015.0 -
22/10:00pm 26.0 - - - - E 20 24 11 13 1015.1 - -
22/09:30pm 25.9 - - - - E 20 22 11 12 1014.8 - -
22/09:20pm 25.9 - - - - E 20 - 11 - - 1014.7 -
22/09:00pm 25.8 - - - - E 20 24 11 13 1014.6 - -
22/08:30pm 26.0 - - - - E 19 20 10 11 1014.4 - -
22/08:20pm 25.8 - - - - E 19 - 10 - - 1014.3 -
22/08:00pm 25.8 - - - - E 19 20 10 11 1014.3 - -
22/07:30pm 25.8 - - - - E 17 19 9 10 1014.1 - -
22/07:20pm 25.8 - - - - E 15 - 8 - - 1013.8 -
22/07:00pm 25.8 - - - - E 17 19 9 10 1013.6 - -
22/06:30pm 25.9 - - - - E 19 20 10 11 1013.3 - -
22/06:20pm 25.8 - - - - E 19 - 10 - - 1013.1 -
22/06:00pm 25.9 - - - - E 19 22 10 12 1013.0 - -
22/05:30pm 26.2 - - - - E 17 19 9 10 1012.9 - -
22/05:20pm 26.1 - - - - E 17 - 9 - - 1012.7 -
22/05:00pm 26.3 - - - - E 17 19 9 10 1012.7 - -
22/04:30pm 26.4 - - - - ESE 15 19 8 10 1012.6 - -
22/04:20pm 26.4 - - - - ESE 17 - 9 - - 1012.4 -
22/04:00pm 26.3 - - - - ESE 15 17 8 9 1012.5 - -
22/03:30pm 26.3 - - - - SE 13 13 7 7 1012.7 - -
22/03:20pm 26.2 - - - - ESE 13 - 7 - - 1012.6 -
22/03:00pm 26.2 - - - - ESE 11 13 6 7 1012.8 - -
22/02:30pm 26.3 - - - - E 13 13 7 7 1013.0 - -
22/02:20pm 26.3 - - - - ESE 11 - 6 - - 1013.0 -
22/02:00pm 26.2 - - - - ESE 11 13 6 7 1013.3 - -
22/01:30pm 26.1 - - - - ESE 11 13 6 7 1013.8 - -
22/01:20pm 26.2 - - - - ESE 11 - 6 - - 1013.7 -
22/01:00pm 26.1 - - - - ESE 9 11 5 6 1014.0 - -
22/12:30pm 26.2 - - - - ESE 7 9 4 5 1014.4 - -
22/12:20pm 26.2 - - - - ESE 7 - 4 - - 1014.5 -
22/12:00pm 26.2 - - - - ESE 7 9 4 5 1014.7 - -
22/11:30am 26.3 - - - - SE 6 7 3 4 1015.2 - -
22/11:20am 26.7 - - - - SE 6 - 3 - - 1015.2 -
22/11:00am 26.5 - - - - CALM 0 0 0 0 1015.4 - -
22/10:30am 27.0 - - - - CALM 0 0 0 0 1015.6 - -
22/10:20am 27.0 - - - - CALM 0 - 0 - - 1015.6 -
22/10:00am 26.6 - - - - E 6 9 3 5 1015.8 - -
22/09:30am 26.1 - - - - NE 7 9 4 5 1015.9 - -
22/09:20am 26.2 - - - - NE 7 - 4 - - 1015.7 -
22/09:00am 26.1 - - - - NE 9 11 5 6 1015.8 - -
22/08:30am 25.9 - - - - NE 11 13 6 7 1015.6 - -
22/08:20am 26.0 - - - - NE 11 - 6 - - 1015.5 -
22/08:00am 25.9 - - - - NE 13 15 7 8 1015.5 - -
22/07:30am 25.8 - - - - NNE 15 17 8 9 1015.2 - -
22/07:20am 25.7 - - - - NNE 15 - 8 - - 1015.1 -
22/07:00am 25.8 - - - - NNE 15 17 8 9 1015.0 - -
22/06:30am 25.7 - - - - NNE 13 17 7 9 1014.8 - -
22/06:20am 25.7 - - - - NNE 15 - 8 - - 1014.6 -
22/06:00am 25.6 - - - - NNE 13 15 7 8 1014.2 - -
22/05:30am 25.5 - - - - NNE 13 15 7 8 1013.7 - -
22/05:20am 25.6 - - - - N 13 - 7 - - 1013.5 -
22/05:00am 25.5 - - - - N 13 17 7 9 1013.3 - -
22/04:30am 25.7 - - - - N 15 19 8 10 1013.0 - -
22/04:20am 25.7 - - - - NNE 17 - 9 - - 1012.9 -
22/04:00am 25.6 - - - - NNE 19 20 10 11 1012.6 - -
22/03:30am 25.6 - - - - NNE 19 20 10 11 1012.5 - -
22/03:20am 25.7 - - - - NNE 20 - 11 - - 1012.4 -
22/03:00am 25.7 - - - - NNE 20 24 11 13 1012.5 - -
22/02:30am 25.7 - - - - NNE 17 19 9 10 1012.7 - -
22/02:20am 25.8 - - - - NNE 19 - 10 - - 1012.7 -
22/02:00am 25.8 - - - - NNE 17 20 9 11 1012.9 - -
22/01:30am 25.9 - - - - NNE 15 17 8 9 1013.0 - -
22/01:20am 25.9 - - - - NNE 15 - 8 - - 1013.1 -
22/01:00am 25.9 - - - - NNE 15 17 8 9 1013.4 - -
22/12:30am 25.9 - - - - NNE 15 17 8 9 1013.7 - -
22/12:20am 26.0 - - - - NE 13 - 7 - - 1013.8 -
22/12:00am 26.0 - - - - NNE 15 19 8 10 1014.1 - -
 
Date/Time
EST
Temp
°C
App
Temp
°C
Dew
Point
Rel
Hum
%
Delta-T
°C
Wind Press
QNH
hPa
Press
MSL
hPa
Rain
since 9 am
mm
Dir
 
Spd
km/h
Gust
km/h
Spd
kts
Gust
kts
21/11:30pm 26.1 - - - - NE 17 19 9 10 1014.5 - -
21/11:20pm 26.0 - - - - NE 15 - 8 - - 1014.3 -
21/11:00pm 26.0 - - - - NE 17 19 9 10 1014.5 - -
21/10:30pm 26.0 - - - - NE 17 20 9 11 1014.4 - -
21/10:20pm 26.0 - - - - NE 19 - 10 - - 1014.4 -
21/10:00pm 26.1 - - - - NE 19 22 10 12 1014.5 - -
21/09:30pm 26.1 - - - - NE 20 22 11 12 1014.2 - -
21/09:20pm 26.2 - - - - NE 20 - 11 - - 1014.1 -
21/09:00pm 26.0 - - - - ENE 19 20 10 11 1014.1 - -
21/08:30pm 26.0 - - - - ENE 20 24 11 13 1013.7 - -
21/08:20pm 26.0 - - - - ENE 20 - 11 - - 1013.5 -
21/08:00pm 26.0 - - - - ENE 22 24 12 13 1013.4 - -
21/07:30pm 25.9 - - - - ENE 20 24 11 13 1013.2 - -
21/07:20pm 25.9 - - - - ENE 20 - 11 - - 1013.1 -

Other Formats:

Comma delimited format used in spreadsheet applications
http://www.bom.gov.au/fwo/IDQ60801/IDQ60801.94371.axf

JavaScript Object Notation format (JSON) in row-major order
http://www.bom.gov.au/fwo/IDQ60801/IDQ60801.94371.json